Latest Coastal Weather Observations for Gunn Point

IDD60701

Issued at 6:41 pm CST Saturday 23 July 2016 (issued every 10 minutes, with the page automatically refreshed every 10 minutes)

About coastal observations | Map of coastal stations | Coastal observations for NT | Marine services | Other Formats
Station Details ID: 014023 Name: GUNN POINT Lat: -12.25 Lon: 131.04 Height: 25.0 m
Data from the previous 72 hours. | See also: Recent months for locations in Northern Territory
Date/Time
CST
Temp
°C
Wind Pressure Rain since
9am
mm
Weather Cloud Vis
km
Sea
Height
m
Swell
Dir  Spd
kts
Gust
kts
hPa Trend Height
m
Period
s
Dir
23/06:30pm 27.1 CALM 0 2 1009.3 - - - - - - - - -
23/06:00pm 27.9 NNE 3 5 1009.1 - - - - - - - - -
23/05:30pm 29.0 NNE 3 6 1009.0 - - - - - - - - -
23/05:00pm 29.5 N 3 6 1009.1 - - - - - - - - -
23/04:30pm 30.2 NNW 5 9 1009.2 - - - - - - - - -
23/04:00pm 29.8 W 4 9 1009.2 - - - - - - - - -
23/03:30pm 29.1 W 6 9 1009.3 - - - - - - - - -
23/03:00pm 29.2 W 5 9 1009.6 - - - - - - - - -
23/02:30pm 29.0 W 7 10 1009.9 - - - - - - - - -
23/02:00pm 29.2 WNW 5 10 1010.4 - - - - - - - - -
23/01:30pm 29.5 W 4 8 1010.9 - - - - - - - - -
23/01:00pm 30.0 WNW 4 8 1011.3 - - - - - - - - -
23/12:30pm 29.2 W 5 8 1012.0 - - - - - - - - -
23/12:00pm 28.9 WNW 4 7 1012.4 - - - - - - - - -
23/11:30am 29.0 NW 3 5 1012.9 - - - - - - - - -
23/11:00am 29.0 WSW 3 6 1013.2 - - - - - - - - -
23/10:30am 29.0 NNE 2 5 1013.4 - 0.0 - - - - - - -
23/10:00am 28.7 ENE 1 3 1013.4 - 0.0 - - - - - - -
23/09:30am 27.9 CALM 0 2 1013.4 - 0.0 - - - - - - -
23/09:00am 27.3 CALM 0 0 1013.3 - - - - - - - - -
23/08:30am 24.5 CALM 0 0 1013.0 - - - - - - - - -
23/08:00am 21.2 CALM 0 0 1012.8 - - - - - - - - -
23/07:30am 18.7 CALM 0 0 1012.6 - - - - - - - - -
23/07:00am 19.1 CALM 0 0 1012.4 - - - - - - - - -
23/06:30am 19.1 CALM 0 0 1012.0 - - - - - - - - -
23/06:00am 19.5 CALM 0 0 1011.8 - - - - - - - - -
23/05:30am 19.4 CALM 0 0 1011.7 - - - - - - - - -
23/05:00am 19.5 CALM 0 0 1011.3 - - - - - - - - -
23/04:30am 20.1 CALM 0 0 1011.1 - - - - - - - - -
23/04:00am 20.2 CALM 0 0 1011.0 - - - - - - - - -
23/03:30am 20.8 CALM 0 0 1011.1 - - - - - - - - -
23/03:00am 21.1 CALM 0 0 1011.3 - 0.0 - - - - - - -
23/02:30am 21.1 CALM 0 0 1011.4 - - - - - - - - -
23/02:00am 21.2 CALM 0 0 1011.6 - - - - - - - - -
23/01:30am 21.3 CALM 0 0 1011.5 - - - - - - - - -
23/01:00am 21.2 CALM 0 3 1011.6 - - - - - - - - -
23/12:30am 20.4 CALM 0 0 1011.6 - - - - - - - - -
23/12:00am 20.2 CALM 0 0 1011.5 - - - - - - - - -
 
Date/Time
CST
Temp
°C
Wind Pressure Rain since
9am
mm
Weather Cloud Vis
km
Sea
Height
m
Swell
Dir  Spd
kts
Gust
kts
hPa Trend Height
m
Period
s
Dir
22/11:30pm 20.2 CALM 0 0 1011.6 - - - - - - - - -
22/11:00pm 20.3 CALM 0 0 1011.3 - - - - - - - - -
22/10:30pm 20.8 CALM 0 0 1011.3 - - - - - - - - -
22/10:00pm 20.8 CALM 0 0 1011.2 - - - - - - - - -
22/09:30pm 21.2 NE 1 2 1011.0 - - - - - - - - -
22/09:00pm 21.4 CALM 0 0 1010.8 - - - - - - - - -
22/08:30pm 21.5 CALM 0 0 1010.5 - - - - - - - - -
22/08:00pm 21.6 CALM 0 2 1010.2 - - - - - - - - -
22/07:30pm 22.2 CALM 0 0 1010.0 - - - - - - - - -
22/07:00pm 24.2 CALM 0 0 1009.8 - - - - - - - - -
22/06:30pm 27.1 CALM 0 1 1009.8 - - - - - - - - -
22/06:00pm 28.6 NNE 1 2 1009.6 - - - - - - - - -
22/05:30pm 29.7 N 3 6 1009.6 - - - - - - - - -
22/05:00pm 29.7 WNW 1 4 1009.4 - - - - - - - - -
22/04:30pm 30.6 - - - 1009.5 - - - - - - - - -
22/04:00pm 31.0 N 5 9 1009.5 - 0.0 - - - - - - -
22/03:30pm 31.6 NNE 4 7 1009.6 - 0.0 - - - - - - -
22/03:00pm 31.6 NNW 5 9 1009.9 - 0.0 - - - - - - -
22/02:30pm 28.9 WNW 5 8 1010.3 - 0.0 - - - - - - -
22/02:00pm 28.2 W 5 9 1010.7 - 0.0 - - - - - - -
22/01:30pm 29.1 NW 4 8 1011.1 - 0.0 - - - - - - -
22/01:00pm 28.2 W 5 9 1011.5 - 0.0 - - - - - - -
22/12:30pm 28.1 W 4 8 1012.0 - 0.0 - - - - - - -
22/12:00pm 28.4 W 4 6 1012.5 - 0.0 - - - - - - -
22/11:30am 28.4 W 4 6 1013.0 - 0.0 - - - - - - -
22/11:00am 28.7 SE 1 5 1013.4 - 0.0 - - - - - - -
22/10:30am 27.7 NE 1 5 1013.7 - 0.0 - - - - - - -
22/10:00am 26.9 CALM 0 0 1013.9 - 0.0 - - - - - - -
22/09:30am 24.9 CALM 0 0 1013.8 - 0.0 - - - - - - -
22/09:00am 23.3 CALM 0 2 1013.8 - - - - - - - - -
22/08:30am 20.3 CALM 0 1 1013.6 - - - - - - - - -
22/08:00am 17.8 E 1 2 1013.4 - - - - - - - - -
22/07:30am 15.6 SE 2 2 1013.1 - - - - - - - - -
22/07:00am 17.1 E 2 4 1012.8 - - - - - - - - -
22/06:30am 16.2 E 1 3 1012.6 - - - - - - - - -
22/06:00am 15.4 CALM 0 0 1012.1 - - - - - - - - -
22/05:30am 15.5 CALM 0 0 1011.9 - - - - - - - - -
22/05:00am 15.1 CALM 0 0 1011.9 - - - - - - - - -
22/04:30am 15.8 CALM 0 0 1011.9 - - - - - - - - -
22/04:00am 15.3 CALM 0 0 1012.1 - - - - - - - - -
22/03:30am 15.6 CALM 0 0 1012.0 - - - - - - - - -
22/03:00am 15.5 CALM 0 0 1012.2 - 0.0 - - - - - - -
22/02:30am 16.1 CALM 0 0 1012.2 - - - - - - - - -
22/02:00am 16.6 CALM 0 0 1012.2 - - - - - - - - -
22/01:30am 16.1 CALM 0 0 1012.3 - - - - - - - - -
22/01:00am 16.4 CALM 0 0 1012.3 - - - - - - - - -
22/12:30am 16.2 CALM 0 0 1012.2 - - - - - - - - -
22/12:00am 16.0 CALM 0 0 1012.3 - - - - - - - - -
 
Date/Time
CST
Temp
°C
Wind Pressure Rain since
9am
mm
Weather Cloud Vis
km
Sea
Height
m
Swell
Dir  Spd
kts
Gust
kts
hPa Trend Height
m
Period
s
Dir
21/11:30pm 16.2 CALM 0 0 1012.5 - - - - - - - - -
21/11:00pm 16.3 CALM 0 0 1012.5 - - - - - - - - -
21/10:30pm 16.6 CALM 0 0 1012.5 - - - - - - - - -
21/10:00pm 17.0 CALM 0 0 1012.2 - - - - - - - - -
21/09:30pm 18.0 NE 1 3 1012.2 - - - - - - - - -
21/09:00pm 18.4 CALM 0 0 1012.0 - - - - - - - - -
21/08:30pm 18.6 CALM 0 0 1012.0 - - - - - - - - -
21/08:00pm 19.9 NE 1 2 1011.7 - - - - - - - - -
21/07:30pm 20.6 NE 1 3 1011.5 - - - - - - - - -
21/07:00pm 21.9 CALM 0 1 1011.1 - - - - - - - - -
21/06:30pm 25.6 NNE 1 3 1011.0 - - - - - - - - -
21/06:00pm 27.2 NNE 2 5 1010.7 - - - - - - - - -
21/05:30pm 28.3 NNE 5 9 1010.6 - - - - - - - - -
21/05:00pm 29.3 NNE 3 6 1010.4 - - - - - - - - -
21/04:30pm 29.6 NNE 4 11 1010.5 - - - - - - - - -
21/04:00pm 29.8 N 6 11 1010.5 - - - - - - - - -
21/03:30pm 30.1 N 5 11 1010.5 - - - - - - - - -
21/03:00pm 29.9 NNE 4 9 1010.8 - - - - - - - - -
21/02:30pm 29.9 ENE 5 13 1011.3 - - - - - - - - -
21/02:00pm 30.3 NE 5 13 1011.8 - - - - - - - - -
21/01:30pm 28.8 CALM 0 4 1012.5 - - - - - - - - -
21/01:00pm 27.5 W 4 7 1012.9 - - - - - - - - -
21/12:30pm 28.2 W 3 7 1013.3 - - - - - - - - -
21/12:00pm 28.5 W 3 6 1013.8 - - - - - - - - -
21/11:30am 29.1 ENE 1 3 1014.0 - - - - - - - - -
21/11:00am 29.3 NE 2 4 1014.3 - - - - - - - - -
21/10:30am 28.7 E 2 5 1014.4 - - - - - - - - -
21/10:00am 27.4 E 1 2 1014.6 - - - - - - - - -
21/09:30am 25.4 ESE 1 2 1014.4 - 0.0 - - - - - - -
21/09:00am 22.4 CALM 0 1 1014.5 - 0.0 - - - - - - -
21/08:30am 20.4 E 1 2 1014.3 - 0.0 - - - - - - -
21/08:00am 17.5 CALM 0 0 1014.0 - 0.0 - - - - - - -
21/07:30am 15.2 CALM 0 2 1013.9 - 0.0 - - - - - - -
21/07:00am 15.9 E 2 4 1013.5 - 0.0 - - - - - - -
21/06:30am 14.0 CALM 0 0 1012.8 - 0.0 - - - - - - -
21/06:00am 13.9 CALM 0 0 1012.7 - 0.0 - - - - - - -
21/05:30am 14.1 CALM 0 0 1012.5 - 0.0 - - - - - - -
21/05:00am 14.5 CALM 0 0 1012.5 - 0.0 - - - - - - -
21/04:30am 14.3 CALM 0 0 1012.6 - 0.0 - - - - - - -
21/04:00am 16.0 CALM 0 0 1012.6 - 0.0 - - - - - - -
21/03:30am 15.2 CALM 0 0 1012.8 - 0.0 - - - - - - -
21/03:00am 15.9 CALM 0 0 1012.7 - 0.0 - - - - - - -
21/02:30am 15.4 CALM 0 0 1012.9 - 0.0 - - - - - - -
21/02:00am 15.8 CALM 0 0 1013.2 - 0.0 - - - - - - -
21/01:30am 16.2 CALM 0 0 1013.3 - 0.0 - - - - - - -
21/01:00am 16.4 CALM 0 0 1013.4 - 0.0 - - - - - - -
21/12:30am 16.1 CALM 0 0 1013.6 - 0.0 - - - - - - -
21/12:00am 16.2 CALM 0 0 1013.6 - 0.0 - - - - - - -
 
Date/Time
CST
Temp
°C
Wind Pressure Rain since
9am
mm
Weather Cloud Vis
km
Sea
Height
m
Swell
Dir  Spd
kts
Gust
kts
hPa Trend Height
m
Period
s
Dir
20/11:30pm 17.1 SSE 4 5 1013.6 - 0.0 - - - - - - -
20/11:00pm 15.8 CALM 0 0 1013.2 - 0.0 - - - - - - -
20/10:30pm 16.4 CALM 0 0 1013.3 - 0.0 - - - - - - -
20/10:00pm 16.5 CALM 0 0 1013.1 - 0.0 - - - - - - -
20/09:30pm 17.1 CALM 0 0 1012.7 - 0.0 - - - - - - -
20/09:00pm 17.4 CALM 0 0 1012.4 - 0.0 - - - - - - -
20/08:30pm 18.1 CALM 0 0 1012.3 - 0.0 - - - - - - -
20/08:00pm 18.1 CALM 0 0 1011.9 - 0.0 - - - - - - -
20/07:30pm 19.6 CALM 0 0 1011.5 - 0.0 - - - - - - -
20/07:00pm 21.1 CALM 0 0 1011.2 - 0.0 - - - - - - -

Other Formats:

Comma delimited format used in spreadsheet applications
http://www.bom.gov.au/fwo/IDD60701/IDD60701.99501.axf

JavaScript Object Notation format (JSON) in row-major order
http://www.bom.gov.au/fwo/IDD60701/IDD60701.99501.json